sensor_id;sensor_type;location;lat;lon;timestamp;pressure;altitude;pressure_sealevel;temperature;humidity
35553;BME280;21656;46.054;13.614;2022-09-03T00:00:33;100551.91;;;17.85;82.47
35553;BME280;21656;46.054;13.614;2022-09-03T00:03:41;100546.97;;;17.97;82.05
35553;BME280;21656;46.054;13.614;2022-09-03T00:06:32;100546.56;;;17.75;82.30
35553;BME280;21656;46.054;13.614;2022-09-03T00:09:06;100544.38;;;17.87;82.31
35553;BME280;21656;46.054;13.614;2022-09-03T00:11:47;100542.88;;;17.93;81.77
35553;BME280;21656;46.054;13.614;2022-09-03T00:14:22;100539.13;;;17.86;82.46
35553;BME280;21656;46.054;13.614;2022-09-03T00:16:59;100536.38;;;17.77;82.87
35553;BME280;21656;46.054;13.614;2022-09-03T00:19:28;100543.88;;;17.84;82.32
35553;BME280;21656;46.054;13.614;2022-09-03T00:22:20;100528.28;;;17.60;83.12
35553;BME280;21656;46.054;13.614;2022-09-03T00:24:49;100544.69;;;17.76;82.21
35553;BME280;21656;46.054;13.614;2022-09-03T00:27:19;100539.47;;;17.83;81.94
35553;BME280;21656;46.054;13.614;2022-09-03T00:30:02;100543.78;;;17.59;82.93
35553;BME280;21656;46.054;13.614;2022-09-03T00:35:27;100547.19;;;17.53;83.44
35553;BME280;21656;46.054;13.614;2022-09-03T00:37:54;100550.25;;;17.58;83.38
35553;BME280;21656;46.054;13.614;2022-09-03T00:43:37;100551.44;;;17.55;83.55
35553;BME280;21656;46.054;13.614;2022-09-03T00:51:25;100556.28;;;17.27;84.25
35553;BME280;21656;46.054;13.614;2022-09-03T00:56:38;100559.19;;;17.34;84.76
35553;BME280;21656;46.054;13.614;2022-09-03T01:01:53;100563.16;;;17.40;84.52
35553;BME280;21656;46.054;13.614;2022-09-03T01:04:37;100564.00;;;17.40;84.51
35553;BME280;21656;46.054;13.614;2022-09-03T01:13:08;100568.59;;;17.40;83.79
35553;BME280;21656;46.054;13.614;2022-09-03T01:18:30;100569.44;;;17.06;85.91
35553;BME280;21656;46.054;13.614;2022-09-03T01:32:23;100581.75;;;17.18;85.33
35553;BME280;21656;46.054;13.614;2022-09-03T01:40:41;100570.38;;;17.23;85.57
35553;BME280;21656;46.054;13.614;2022-09-03T01:43:36;100571.19;;;17.15;85.58
35553;BME280;21656;46.054;13.614;2022-09-03T01:46:10;100571.53;;;17.12;85.17
35553;BME280;21656;46.054;13.614;2022-09-03T01:51:24;100574.44;;;17.19;84.89
35553;BME280;21656;46.054;13.614;2022-09-03T02:02:17;100587.38;;;16.90;86.70
35553;BME280;21656;46.054;13.614;2022-09-03T02:05:00;100594.91;;;16.97;86.83
35553;BME280;21656;46.054;13.614;2022-09-03T02:07:31;100593.31;;;16.24;91.02
35553;BME280;21656;46.054;13.614;2022-09-03T02:09:59;100588.91;;;16.67;89.44
35553;BME280;21656;46.054;13.614;2022-09-03T02:12:25;100593.31;;;16.68;89.24
35553;BME280;21656;46.054;13.614;2022-09-03T02:14:54;100588.03;;;16.84;88.15
35553;BME280;21656;46.054;13.614;2022-09-03T02:17:19;100591.66;;;16.75;87.67
35553;BME280;21656;46.054;13.614;2022-09-03T02:19:45;100600.41;;;16.79;87.17
35553;BME280;21656;46.054;13.614;2022-09-03T02:22:11;100604.72;;;16.89;86.76
35553;BME280;21656;46.054;13.614;2022-09-03T02:24:37;100606.16;;;17.02;86.84
35553;BME280;21656;46.054;13.614;2022-09-03T02:27:03;100610.63;;;16.85;86.27
35553;BME280;21656;46.054;13.614;2022-09-03T02:29:28;100607.56;;;16.62;87.59
35553;BME280;21656;46.054;13.614;2022-09-03T02:31:54;100604.13;;;16.60;88.66
35553;BME280;21656;46.054;13.614;2022-09-03T02:34:20;100619.59;;;16.59;88.24
35553;BME280;21656;46.054;13.614;2022-09-03T02:36:46;100616.56;;;16.62;88.20
35553;BME280;21656;46.054;13.614;2022-09-03T02:39:13;100622.09;;;16.35;88.98
35553;BME280;21656;46.054;13.614;2022-09-03T02:41:39;100605.06;;;16.51;88.88
35553;BME280;21656;46.054;13.614;2022-09-03T02:44:15;100597.63;;;16.53;88.27
35553;BME280;21656;46.054;13.614;2022-09-03T02:46:48;100588.94;;;16.49;89.18
35553;BME280;21656;46.054;13.614;2022-09-03T02:49:14;100589.38;;;16.62;88.14
35553;BME280;21656;46.054;13.614;2022-09-03T02:51:41;100600.09;;;16.82;86.93
35553;BME280;21656;46.054;13.614;2022-09-03T02:54:08;100601.41;;;16.78;86.97
35553;BME280;21656;46.054;13.614;2022-09-03T02:56:35;100597.09;;;16.75;87.60
35553;BME280;21656;46.054;13.614;2022-09-03T02:59:02;100613.50;;;16.65;87.91
35553;BME280;21656;46.054;13.614;2022-09-03T03:01:28;100609.34;;;16.71;87.64
35553;BME280;21656;46.054;13.614;2022-09-03T03:03:53;100606.94;;;16.50;88.01
35553;BME280;21656;46.054;13.614;2022-09-03T03:06:19;100603.22;;;16.51;88.39
35553;BME280;21656;46.054;13.614;2022-09-03T03:08:45;100605.63;;;16.54;88.04
35553;BME280;21656;46.054;13.614;2022-09-03T03:11:11;100604.03;;;16.69;87.79
35553;BME280;21656;46.054;13.614;2022-09-03T03:13:37;100601.56;;;16.58;87.44
35553;BME280;21656;46.054;13.614;2022-09-03T03:16:04;100607.47;;;16.72;87.37
35553;BME280;21656;46.054;13.614;2022-09-03T03:18:33;100602.47;;;16.85;86.72
35553;BME280;21656;46.054;13.614;2022-09-03T03:21:09;100598.25;;;16.90;86.32
35553;BME280;21656;46.054;13.614;2022-09-03T03:23:36;100603.19;;;16.69;86.79
35553;BME280;21656;46.054;13.614;2022-09-03T03:26:04;100599.34;;;16.54;87.30
35553;BME280;21656;46.054;13.614;2022-09-03T03:28:30;100605.72;;;16.44;87.86
35553;BME280;21656;46.054;13.614;2022-09-03T03:30:58;100600.03;;;16.38;88.25
35553;BME280;21656;46.054;13.614;2022-09-03T03:33:28;100595.88;;;16.43;87.39
35553;BME280;21656;46.054;13.614;2022-09-03T03:35:54;100609.28;;;16.45;88.39
35553;BME280;21656;46.054;13.614;2022-09-03T03:38:19;100613.72;;;16.46;88.24
35553;BME280;21656;46.054;13.614;2022-09-03T03:40:44;100609.59;;;16.42;88.11
35553;BME280;21656;46.054;13.614;2022-09-03T03:43:10;100601.50;;;16.50;88.20
35553;BME280;21656;46.054;13.614;2022-09-03T03:45:36;100610.91;;;16.20;88.79
35553;BME280;21656;46.054;13.614;2022-09-03T03:48:01;100612.47;;;16.04;90.43
35553;BME280;21656;46.054;13.614;2022-09-03T03:50:27;100615.50;;;16.19;90.72
35553;BME280;21656;46.054;13.614;2022-09-03T03:52:52;100611.50;;;16.06;89.93
35553;BME280;21656;46.054;13.614;2022-09-03T03:55:17;100604.72;;;16.10;90.38
35553;BME280;21656;46.054;13.614;2022-09-03T03:57:43;100611.69;;;15.94;90.97
35553;BME280;21656;46.054;13.614;2022-09-03T04:00:08;100608.06;;;16.03;91.17
35553;BME280;21656;46.054;13.614;2022-09-03T04:02:34;100610.38;;;15.98;90.72
35553;BME280;21656;46.054;13.614;2022-09-03T04:04:59;100610.72;;;15.68;92.36
35553;BME280;21656;46.054;13.614;2022-09-03T04:07:25;100599.34;;;16.00;91.30
35553;BME280;21656;46.054;13.614;2022-09-03T04:09:50;100601.00;;;16.11;90.75
35553;BME280;21656;46.054;13.614;2022-09-03T04:12:16;100593.91;;;16.18;90.38
35553;BME280;21656;46.054;13.614;2022-09-03T04:14:42;100598.75;;;16.06;89.98
35553;BME280;21656;46.054;13.614;2022-09-03T04:17:07;100601.84;;;16.29;89.27
35553;BME280;21656;46.054;13.614;2022-09-03T04:19:32;100595.56;;;16.29;89.08
35553;BME280;21656;46.054;13.614;2022-09-03T04:22:01;100596.56;;;16.28;88.03
35553;BME280;21656;46.054;13.614;2022-09-03T04:24:27;100604.78;;;16.18;88.23
35553;BME280;21656;46.054;13.614;2022-09-03T04:26:53;100597.91;;;16.23;89.36
35553;BME280;21656;46.054;13.614;2022-09-03T04:29:18;100604.00;;;16.08;89.42
35553;BME280;21656;46.054;13.614;2022-09-03T04:31:45;100606.25;;;16.30;88.55
35553;BME280;21656;46.054;13.614;2022-09-03T04:34:30;100607.91;;;16.41;88.14
35553;BME280;21656;46.054;13.614;2022-09-03T04:36:56;100600.91;;;16.38;87.83
35553;BME280;21656;46.054;13.614;2022-09-03T04:39:23;100599.44;;;16.44;87.74
35553;BME280;21656;46.054;13.614;2022-09-03T04:41:49;100605.19;;;16.41;87.82
35553;BME280;21656;46.054;13.614;2022-09-03T04:44:14;100608.38;;;16.36;87.90
35553;BME280;21656;46.054;13.614;2022-09-03T04:46:40;100609.91;;;16.39;88.01
35553;BME280;21656;46.054;13.614;2022-09-03T04:49:05;100600.22;;;16.36;87.71
35553;BME280;21656;46.054;13.614;2022-09-03T04:51:34;100600.91;;;16.38;87.81
35553;BME280;21656;46.054;13.614;2022-09-03T04:54:02;100609.66;;;16.50;87.56
35553;BME280;21656;46.054;13.614;2022-09-03T04:56:31;100616.72;;;16.43;88.06
35553;BME280;21656;46.054;13.614;2022-09-03T04:58:58;100615.94;;;16.51;87.52
35553;BME280;21656;46.054;13.614;2022-09-03T05:01:26;100623.56;;;16.47;86.82
35553;BME280;21656;46.054;13.614;2022-09-03T05:03:52;100618.28;;;16.28;88.00
35553;BME280;21656;46.054;13.614;2022-09-03T05:06:18;100621.00;;;16.28;88.83
35553;BME280;21656;46.054;13.614;2022-09-03T05:08:47;100614.13;;;16.33;88.72
35553;BME280;21656;46.054;13.614;2022-09-03T05:11:13;100621.31;;;16.24;88.58
35553;BME280;21656;46.054;13.614;2022-09-03T05:13:39;100617.06;;;16.22;88.74
35553;BME280;21656;46.054;13.614;2022-09-03T05:16:07;100611.94;;;16.19;89.21
35553;BME280;21656;46.054;13.614;2022-09-03T05:18:33;100618.22;;;16.37;88.34
35553;BME280;21656;46.054;13.614;2022-09-03T05:21:04;100619.75;;;16.40;88.29
35553;BME280;21656;46.054;13.614;2022-09-03T05:23:31;100617.91;;;16.40;87.73
35553;BME280;21656;46.054;13.614;2022-09-03T05:25:58;100617.59;;;16.43;87.58
35553;BME280;21656;46.054;13.614;2022-09-03T05:28:28;100620.56;;;16.32;88.07
35553;BME280;21656;46.054;13.614;2022-09-03T05:30:59;100613.25;;;16.15;89.96
35553;BME280;21656;46.054;13.614;2022-09-03T05:33:25;100618.38;;;16.18;89.38
35553;BME280;21656;46.054;13.614;2022-09-03T05:35:50;100617.50;;;16.35;88.61
35553;BME280;21656;46.054;13.614;2022-09-03T05:38:17;100614.28;;;16.32;89.00
35553;BME280;21656;46.054;13.614;2022-09-03T05:40:43;100619.31;;;16.27;89.31
35553;BME280;21656;46.054;13.614;2022-09-03T05:43:08;100619.38;;;16.35;89.30
35553;BME280;21656;46.054;13.614;2022-09-03T05:45:34;100619.25;;;16.36;89.46
35553;BME280;21656;46.054;13.614;2022-09-03T05:47:59;100611.25;;;16.17;91.95
35553;BME280;21656;46.054;13.614;2022-09-03T05:50:25;100615.97;;;16.15;91.60
35553;BME280;21656;46.054;13.614;2022-09-03T05:52:51;100618.53;;;16.16;91.73
35553;BME280;21656;46.054;13.614;2022-09-03T05:55:17;100611.41;;;16.33;90.80
35553;BME280;21656;46.054;13.614;2022-09-03T05:57:42;100608.09;;;16.47;90.02
35553;BME280;21656;46.054;13.614;2022-09-03T06:00:09;100603.06;;;16.53;89.87
35553;BME280;21656;46.054;13.614;2022-09-03T06:02:35;100594.91;;;16.53;90.04
35553;BME280;21656;46.054;13.614;2022-09-03T06:05:01;100601.47;;;16.68;88.59
35553;BME280;21656;46.054;13.614;2022-09-03T06:07:26;100587.06;;;16.76;88.64
35553;BME280;21656;46.054;13.614;2022-09-03T06:09:51;100580.72;;;16.85;88.35
35553;BME280;21656;46.054;13.614;2022-09-03T06:12:18;100577.91;;;16.95;87.76
35553;BME280;21656;46.054;13.614;2022-09-03T06:14:44;100574.84;;;16.98;87.64
35553;BME280;21656;46.054;13.614;2022-09-03T06:17:09;100572.63;;;17.01;87.06
35553;BME280;21656;46.054;13.614;2022-09-03T06:19:36;100569.44;;;17.06;85.99
35553;BME280;21656;46.054;13.614;2022-09-03T06:22:02;100580.16;;;17.07;86.33
35553;BME280;21656;46.054;13.614;2022-09-03T06:24:27;100573.38;;;17.11;86.19
35553;BME280;21656;46.054;13.614;2022-09-03T06:26:54;100575.69;;;17.24;85.81
35553;BME280;21656;46.054;13.614;2022-09-03T06:29:20;100573.78;;;17.25;86.22
35553;BME280;21656;46.054;13.614;2022-09-03T06:31:46;100566.00;;;17.30;85.28
35553;BME280;21656;46.054;13.614;2022-09-03T06:34:14;100565.00;;;17.39;85.60
35553;BME280;21656;46.054;13.614;2022-09-03T06:36:42;100563.16;;;17.40;84.83
35553;BME280;21656;46.054;13.614;2022-09-03T06:39:07;100563.50;;;17.45;84.16
35553;BME280;21656;46.054;13.614;2022-09-03T06:41:33;100552.09;;;17.49;83.09
35553;BME280;21656;46.054;13.614;2022-09-03T06:44:06;100537.00;;;17.55;83.30
35553;BME280;21656;46.054;13.614;2022-09-03T06:46:37;100546.03;;;17.64;83.85
35553;BME280;21656;46.054;13.614;2022-09-03T06:49:03;100539.03;;;17.69;82.92
35553;BME280;21656;46.054;13.614;2022-09-03T06:51:30;100541.47;;;17.72;81.86
35553;BME280;21656;46.054;13.614;2022-09-03T06:54:05;100543.19;;;17.90;81.94
35553;BME280;21656;46.054;13.614;2022-09-03T06:56:31;100536.75;;;17.91;82.06
35553;BME280;21656;46.054;13.614;2022-09-03T06:59:02;100530.44;;;17.98;82.46
35553;BME280;21656;46.054;13.614;2022-09-03T07:01:29;100518.88;;;18.05;81.76
35553;BME280;21656;46.054;13.614;2022-09-03T07:04:01;100527.91;;;18.13;80.35
35553;BME280;21656;46.054;13.614;2022-09-03T07:06:29;100525.16;;;18.22;80.53
35553;BME280;21656;46.054;13.614;2022-09-03T07:08:55;100520.75;;;18.29;80.65
35553;BME280;21656;46.054;13.614;2022-09-03T07:11:23;100517.84;;;18.38;80.00
35553;BME280;21656;46.054;13.614;2022-09-03T07:13:51;100518.69;;;18.47;79.60
35553;BME280;21656;46.054;13.614;2022-09-03T07:16:28;100530.59;;;18.54;78.27
35553;BME280;21656;46.054;13.614;2022-09-03T07:18:55;100529.56;;;18.63;79.19
35553;BME280;21656;46.054;13.614;2022-09-03T07:21:22;100531.44;;;18.71;78.73
35553;BME280;21656;46.054;13.614;2022-09-03T07:23:49;100523.25;;;18.79;77.99
35553;BME280;21656;46.054;13.614;2022-09-03T07:26:27;100523.53;;;18.93;77.17
35553;BME280;21656;46.054;13.614;2022-09-03T07:28:53;100515.84;;;18.96;77.63
35553;BME280;21656;46.054;13.614;2022-09-03T07:31:25;100519.56;;;19.03;77.72
35553;BME280;21656;46.054;13.614;2022-09-03T07:33:54;100524.50;;;19.08;76.52
35553;BME280;21656;46.054;13.614;2022-09-03T07:36:21;100521.09;;;19.14;76.25
35553;BME280;21656;46.054;13.614;2022-09-03T07:38:47;100527.03;;;19.18;75.55
35553;BME280;21656;46.054;13.614;2022-09-03T07:41:14;100516.75;;;19.28;76.07
35553;BME280;21656;46.054;13.614;2022-09-03T07:43:41;100519.63;;;19.35;75.61
35553;BME280;21656;46.054;13.614;2022-09-03T07:46:15;100519.34;;;19.53;74.37
35553;BME280;21656;46.054;13.614;2022-09-03T07:48:45;100528.03;;;19.56;73.78
35553;BME280;21656;46.054;13.614;2022-09-03T07:51:11;100527.50;;;19.61;73.00
35553;BME280;21656;46.054;13.614;2022-09-03T07:53:36;100518.59;;;19.67;74.00
35553;BME280;21656;46.054;13.614;2022-09-03T07:56:04;100526.03;;;19.81;73.34
35553;BME280;21656;46.054;13.614;2022-09-03T07:58:31;100527.78;;;19.97;71.87
35553;BME280;21656;46.054;13.614;2022-09-03T08:00:57;100534.06;;;20.06;71.69
35553;BME280;21656;46.054;13.614;2022-09-03T08:03:23;100529.56;;;20.13;71.17
35553;BME280;21656;46.054;13.614;2022-09-03T08:05:49;100525.03;;;20.20;71.26
35553;BME280;21656;46.054;13.614;2022-09-03T08:08:14;100526.13;;;20.34;71.24
35553;BME280;21656;46.054;13.614;2022-09-03T08:10:42;100536.13;;;20.42;71.62
35553;BME280;21656;46.054;13.614;2022-09-03T08:13:07;100542.44;;;20.42;68.90
35553;BME280;21656;46.054;13.614;2022-09-03T08:15:33;100535.88;;;20.51;69.57
35553;BME280;21656;46.054;13.614;2022-09-03T08:17:59;100537.06;;;20.57;70.06
35553;BME280;21656;46.054;13.614;2022-09-03T08:20:26;100533.84;;;20.68;69.22
35553;BME280;21656;46.054;13.614;2022-09-03T08:22:59;100542.00;;;20.76;68.39
35553;BME280;21656;46.054;13.614;2022-09-03T08:25:26;100537.25;;;20.85;66.76
35553;BME280;21656;46.054;13.614;2022-09-03T08:27:52;100541.13;;;20.91;67.08
35553;BME280;21656;46.054;13.614;2022-09-03T08:30:18;100538.22;;;20.92;65.49
35553;BME280;21656;46.054;13.614;2022-09-03T08:32:45;100540.84;;;21.00;66.58
35553;BME280;21656;46.054;13.614;2022-09-03T08:35:11;100541.41;;;21.11;66.36
35553;BME280;21656;46.054;13.614;2022-09-03T08:37:37;100541.97;;;21.21;66.85
35553;BME280;21656;46.054;13.614;2022-09-03T08:40:06;100542.34;;;21.33;66.52
35553;BME280;21656;46.054;13.614;2022-09-03T08:45:06;100544.03;;;21.49;64.65
35553;BME280;21656;46.054;13.614;2022-09-03T08:47:47;100546.50;;;21.58;65.62
35553;BME280;21656;46.054;13.614;2022-09-03T08:50:32;100538.72;;;21.62;64.51
35553;BME280;21656;46.054;13.614;2022-09-03T08:55:55;100544.16;;;21.77;63.61
35553;BME280;21656;46.054;13.614;2022-09-03T08:58:27;100541.28;;;21.85;64.10
35553;BME280;21656;46.054;13.614;2022-09-03T09:03:41;100540.91;;;22.10;63.63
35553;BME280;21656;46.054;13.614;2022-09-03T09:06:24;100541.47;;;22.20;62.55
35553;BME280;21656;46.054;13.614;2022-09-03T09:14:37;100541.06;;;22.44;60.63
35553;BME280;21656;46.054;13.614;2022-09-03T09:22:34;100549.22;;;22.66;60.12
35553;BME280;21656;46.054;13.614;2022-09-03T09:25:15;100552.22;;;22.71;56.63
35553;BME280;21656;46.054;13.614;2022-09-03T09:28:02;100554.03;;;22.85;56.76
35553;BME280;21656;46.054;13.614;2022-09-03T09:30:30;100546.53;;;23.01;58.60
35553;BME280;21656;46.054;13.614;2022-09-03T09:32:56;100544.09;;;23.12;55.72
35553;BME280;21656;46.054;13.614;2022-09-03T09:35:22;100544.34;;;23.24;56.08
35553;BME280;21656;46.054;13.614;2022-09-03T09:37:53;100544.63;;;23.36;55.04
35553;BME280;21656;46.054;13.614;2022-09-03T09:42:51;100548.06;;;23.45;52.86
35553;BME280;21656;46.054;13.614;2022-09-03T09:45:27;100540.84;;;23.44;53.81
35553;BME280;21656;46.054;13.614;2022-09-03T09:47:55;100535.56;;;23.49;55.40
35553;BME280;21656;46.054;13.614;2022-09-03T09:50:21;100532.00;;;23.48;55.75
35553;BME280;21656;46.054;13.614;2022-09-03T09:52:47;100528.41;;;23.54;55.50
35553;BME280;21656;46.054;13.614;2022-09-03T09:55:18;100521.03;;;23.62;56.09
35553;BME280;21656;46.054;13.614;2022-09-03T09:57:52;100521.69;;;23.64;55.49
35553;BME280;21656;46.054;13.614;2022-09-03T10:00:18;100522.53;;;23.64;55.61
35553;BME280;21656;46.054;13.614;2022-09-03T10:02:51;100524.66;;;23.69;56.98
35553;BME280;21656;46.054;13.614;2022-09-03T10:05:30;100537.97;;;23.72;54.90
35553;BME280;21656;46.054;13.614;2022-09-03T10:08:14;100530.66;;;23.86;56.74
35553;BME280;21656;46.054;13.614;2022-09-03T10:10:47;100531.09;;;24.02;54.82
35553;BME280;21656;46.054;13.614;2022-09-03T10:13:31;100535.16;;;24.13;53.72
35553;BME280;21656;46.054;13.614;2022-09-03T10:16:05;100530.28;;;24.29;52.52
35553;BME280;21656;46.054;13.614;2022-09-03T10:27:07;100548.69;;;24.88;47.65
35553;BME280;21656;46.054;13.614;2022-09-03T10:29:35;100542.34;;;24.87;48.56
35553;BME280;21656;46.054;13.614;2022-09-03T10:34:58;100530.69;;;24.92;47.45
35553;BME280;21656;46.054;13.614;2022-09-03T10:37:39;100535.56;;;24.97;46.43
35553;BME280;21656;46.054;13.614;2022-09-03T10:46:36;100537.63;;;25.15;45.77
35553;BME280;21656;46.054;13.614;2022-09-03T10:48:57;100529.78;;;25.25;46.95
35553;BME280;21656;46.054;13.614;2022-09-03T10:51:40;100537.81;;;25.26;45.30
35553;BME280;21656;46.054;13.614;2022-09-03T10:57:17;100541.13;;;25.42;44.98
35553;BME280;21656;46.054;13.614;2022-09-03T11:00:00;100539.84;;;25.44;45.91
35553;BME280;21656;46.054;13.614;2022-09-03T11:05:40;100537.25;;;25.63;48.06
35553;BME280;21656;46.054;13.614;2022-09-03T11:08:22;100536.34;;;25.69;47.01
35553;BME280;21656;46.054;13.614;2022-09-03T11:10:54;100529.34;;;25.73;47.26
35553;BME280;21656;46.054;13.614;2022-09-03T11:13:26;100539.13;;;25.69;44.34
35553;BME280;21656;46.054;13.614;2022-09-03T11:15:58;100528.78;;;25.58;44.30
35553;BME280;21656;46.054;13.614;2022-09-03T11:21:04;100536.66;;;25.92;44.38
35553;BME280;21656;46.054;13.614;2022-09-03T11:23:36;100527.56;;;25.92;45.77
35553;BME280;21656;46.054;13.614;2022-09-03T11:26:09;100533.91;;;25.92;44.42
35553;BME280;21656;46.054;13.614;2022-09-03T11:28:47;100531.47;;;26.09;45.03
35553;BME280;21656;46.054;13.614;2022-09-03T11:34:07;100526.75;;;26.42;45.42
35553;BME280;21656;46.054;13.614;2022-09-03T11:36:38;100528.09;;;26.32;44.04
35553;BME280;21656;46.054;13.614;2022-09-03T11:41:56;100521.56;;;26.52;45.13
35553;BME280;21656;46.054;13.614;2022-09-03T11:44:23;100517.78;;;26.53;44.67
35553;BME280;21656;46.054;13.614;2022-09-03T11:47:13;100518.41;;;26.48;44.82
35553;BME280;21656;46.054;13.614;2022-09-03T11:50:03;100525.22;;;26.52;44.66
35553;BME280;21656;46.054;13.614;2022-09-03T11:52:31;100522.72;;;26.69;45.44
35553;BME280;21656;46.054;13.614;2022-09-03T11:54:57;100519.75;;;26.89;43.35
35553;BME280;21656;46.054;13.614;2022-09-03T11:57:31;100541.47;;;26.86;43.57
35553;BME280;21656;46.054;13.614;2022-09-03T12:00:17;100533.78;;;26.37;42.85
35553;BME280;21656;46.054;13.614;2022-09-03T12:02:54;100521.06;;;26.11;43.44
35553;BME280;21656;46.054;13.614;2022-09-03T12:08:49;100528.81;;;25.96;47.40
35553;BME280;21656;46.054;13.614;2022-09-03T12:16:51;100523.63;;;26.63;45.53
35553;BME280;21656;46.054;13.614;2022-09-03T12:19:25;100519.34;;;26.86;44.36
35553;BME280;21656;46.054;13.614;2022-09-03T12:21:54;100513.47;;;26.82;43.97
35553;BME280;21656;46.054;13.614;2022-09-03T12:24:21;100517.91;;;26.83;44.21
35553;BME280;21656;46.054;13.614;2022-09-03T12:26:47;100510.75;;;26.94;43.67
35553;BME280;21656;46.054;13.614;2022-09-03T12:29:48;100517.00;;;27.08;44.07
35553;BME280;21656;46.054;13.614;2022-09-03T12:32:14;100522.44;;;27.14;43.57
35553;BME280;21656;46.054;13.614;2022-09-03T12:34:40;100510.09;;;27.17;42.57
35553;BME280;21656;46.054;13.614;2022-09-03T12:37:19;100503.53;;;27.18;42.51
35553;BME280;21656;46.054;13.614;2022-09-03T12:39:55;100513.47;;;27.00;42.68
35553;BME280;21656;46.054;13.614;2022-09-03T12:42:25;100513.94;;;26.97;43.48
35553;BME280;21656;46.054;13.614;2022-09-03T12:44:53;100506.28;;;27.18;44.46
35553;BME280;21656;46.054;13.614;2022-09-03T12:47:23;100503.34;;;27.31;45.59
35553;BME280;21656;46.054;13.614;2022-09-03T12:49:51;100509.97;;;27.30;43.63
35553;BME280;21656;46.054;13.614;2022-09-03T12:57:54;100501.81;;;27.35;42.82
35553;BME280;21656;46.054;13.614;2022-09-03T13:00:24;100496.97;;;27.12;42.42
35553;BME280;21656;46.054;13.614;2022-09-03T13:03:09;100497.94;;;26.81;43.62
35553;BME280;21656;46.054;13.614;2022-09-03T13:05:42;100486.00;;;26.69;44.87
35553;BME280;21656;46.054;13.614;2022-09-03T13:08:14;100490.75;;;26.80;42.49
35553;BME280;21656;46.054;13.614;2022-09-03T13:10:42;100490.06;;;26.85;43.51
35553;BME280;21656;46.054;13.614;2022-09-03T13:13:25;100487.28;;;26.85;43.66
35553;BME280;21656;46.054;13.614;2022-09-03T13:16:15;100494.34;;;26.80;43.45
35553;BME280;21656;46.054;13.614;2022-09-03T13:24:02;100487.19;;;26.73;44.36
35553;BME280;21656;46.054;13.614;2022-09-03T13:26:41;100486.56;;;26.71;43.54
35553;BME280;21656;46.054;13.614;2022-09-03T13:32:22;100478.22;;;26.77;43.95
35553;BME280;21656;46.054;13.614;2022-09-03T13:34:56;100477.78;;;26.80;44.15
35553;BME280;21656;46.054;13.614;2022-09-03T13:40:53;100476.09;;;26.79;43.87
35553;BME280;21656;46.054;13.614;2022-09-03T13:46:05;100474.00;;;26.93;44.05
35553;BME280;21656;46.054;13.614;2022-09-03T13:51:29;100468.03;;;26.78;43.71
35553;BME280;21656;46.054;13.614;2022-09-03T13:54:28;100460.19;;;26.75;44.49
35553;BME280;21656;46.054;13.614;2022-09-03T13:57:03;100462.75;;;26.76;43.62
35553;BME280;21656;46.054;13.614;2022-09-03T14:16:08;100450.09;;;26.44;43.31
35553;BME280;21656;46.054;13.614;2022-09-03T14:21:22;100441.94;;;26.30;44.57
35553;BME280;21656;46.054;13.614;2022-09-03T14:26:33;100439.97;;;26.12;45.33
35553;BME280;21656;46.054;13.614;2022-09-03T14:32:14;100444.19;;;25.90;43.74
35553;BME280;21656;46.054;13.614;2022-09-03T14:37:52;100441.72;;;25.75;45.50
35553;BME280;21656;46.054;13.614;2022-09-03T14:40:46;100435.34;;;25.74;46.09
35553;BME280;21656;46.054;13.614;2022-09-03T14:45:51;100442.41;;;25.70;47.26
35553;BME280;21656;46.054;13.614;2022-09-03T15:07:31;100439.13;;;25.48;45.57
35553;BME280;21656;46.054;13.614;2022-09-03T15:12:54;100449.44;;;25.60;45.39
35553;BME280;21656;46.054;13.614;2022-09-03T15:15:28;100436.75;;;25.59;46.20
35553;BME280;21656;46.054;13.614;2022-09-03T15:18:08;100435.28;;;25.56;47.39
35553;BME280;21656;46.054;13.614;2022-09-03T15:20:49;100443.94;;;25.60;45.29
35553;BME280;21656;46.054;13.614;2022-09-03T15:28:55;100446.97;;;25.51;46.81
35553;BME280;21656;46.054;13.614;2022-09-03T15:36:50;100452.72;;;25.50;45.53
35553;BME280;21656;46.054;13.614;2022-09-03T15:39:31;100446.59;;;25.41;45.88
35553;BME280;21656;46.054;13.614;2022-09-03T15:44:24;100450.09;;;25.17;48.46
35553;BME280;21656;46.054;13.614;2022-09-03T15:47:05;100440.38;;;25.07;48.19
35553;BME280;21656;46.054;13.614;2022-09-03T16:00:06;100435.31;;;24.98;55.47
35553;BME280;21656;46.054;13.614;2022-09-03T16:02:42;100442.81;;;24.84;55.06
35553;BME280;21656;46.054;13.614;2022-09-03T16:05:15;100436.47;;;24.77;55.95
35553;BME280;21656;46.054;13.614;2022-09-03T16:10:34;100436.72;;;24.55;57.11
35553;BME280;21656;46.054;13.614;2022-09-03T16:13:10;100440.94;;;24.44;57.79
35553;BME280;21656;46.054;13.614;2022-09-03T16:15:50;100435.03;;;24.41;58.53
35553;BME280;21656;46.054;13.614;2022-09-03T16:29:13;100435.41;;;23.65;60.32
35553;BME280;21656;46.054;13.614;2022-09-03T16:32:08;100436.50;;;23.70;61.46
35553;BME280;21656;46.054;13.614;2022-09-03T16:42:28;100432.44;;;23.40;63.22
35553;BME280;21656;46.054;13.614;2022-09-03T16:53:21;100426.78;;;23.00;65.79
35553;BME280;21656;46.054;13.614;2022-09-03T16:56:22;100425.69;;;22.94;66.57
35553;BME280;21656;46.054;13.614;2022-09-03T17:10:36;100424.25;;;22.28;69.27
35553;BME280;21656;46.054;13.614;2022-09-03T17:24:32;100435.19;;;22.00;71.82
35553;BME280;21656;46.054;13.614;2022-09-03T17:27:31;100446.28;;;21.92;71.18